Heman, Illinois
Current Conditions -  °F | °C
As of 12:54 PM on Thursday 23 Oct 2014 (Local Time) from KDEC Reporting Station
Clear Clear  
Wind Chill: 58°   Ceiling: Unl
Heat Index: 58°   Visibility: 10mi
Dew Point: 44°   Wind: 10mph
Humidity: 60%   Direction: 220°SW
Pressure: 30.19"   Gusts: NA
Location:  39.9621°N, 89.0863°W
Report Text: KDEC 231754Z 22009KT 10SM CLR 14/07 A3019 RMK AO2 SLP225 T01440067 10144 20006 58017
Loading
Personal Weather Stations






























Interactive Weather Map
Tropical Storm Tracking
New forecast layout! Learn more

10-Day Weather Forecast

Advertisements
Track Severe Weather on mobile